Time;durP1;ratioP1;P1;durP2;ratioP2;P2;SDS_P1;SDS_P2;PMS_P1;PMS_P2;Temp;Humidity;BMP_temperature;BMP_pressure;BME280_temperature;BME280_humidity;BME280_pressure;Samples;Min_cycle;Max_cycle;Signal;HPM_P1;HPM_P2
2022/12/09 00:01:13;;;;;;;7.83;6.27;;;;;;;3.76;54.76;97797.91;6991339;28;20259;-78
2022/12/09 00:04:34;;;;;;;10.87;6.13;;;;;;;3.63;55.09;97787.94;6974737;28;20267;-78
2022/12/09 00:07:56;;;;;;;6.70;5.40;;;;;;;3.86;54.69;97779.78;6976101;28;20230;-79
2022/12/09 00:11:20;;;;;;;6.47;5.43;;;;;;;3.31;54.33;97782.97;6976379;28;20341;-78
2022/12/09 00:14:41;;;;;;;6.27;5.50;;;;;;;3.54;54.96;97794.34;6976940;28;20226;-78
2022/12/09 00:18:04;;;;;;;6.53;5.70;;;;;;;3.55;55.26;97768.56;6976132;28;20269;-78
2022/12/09 00:21:31;;;;;;;7.97;5.73;;;;;;;3.54;55.21;97761.56;6979603;28;20210;-79
2022/12/09 00:24:53;;;;;;;6.53;5.70;;;;;;;3.68;54.86;97761.53;7032714;28;20213;-78
2022/12/09 00:28:15;;;;;;;7.37;6.37;;;;;;;3.17;54.79;97761.69;7000767;28;20250;-78
2022/12/09 00:31:38;;;;;;;8.37;6.23;;;;;;;3.29;55.53;97749.56;6977316;28;20359;-78
2022/12/09 00:34:59;;;;;;;7.23;5.80;;;;;;;3.02;56.48;97748.38;6976514;28;20221;-78
2022/12/09 00:38:21;;;;;;;8.37;6.20;;;;;;;3.14;56.00;97770.88;7012189;28;20365;-78
2022/12/09 00:41:45;;;;;;;7.10;6.40;;;;;;;3.39;56.48;97756.28;7034695;28;20200;-79
2022/12/09 00:45:09;;;;;;;7.63;6.07;;;;;;;3.25;56.47;97762.41;7034607;28;20720;-79
2022/12/09 00:48:33;;;;;;;9.07;6.20;;;;;;;3.02;55.92;97742.25;7034685;28;20289;-79
2022/12/09 00:51:54;;;;;;;8.53;7.60;;;;;;;2.77;56.58;97754.97;7034076;28;20217;-79
2022/12/09 00:55:16;;;;;;;8.63;7.80;;;;;;;3.47;55.75;97777.47;7034327;28;20197;-79
2022/12/09 00:58:37;;;;;;;7.07;5.70;;;;;;;3.53;54.86;97763.41;6996729;28;20316;-79
2022/12/09 01:02:00;;;;;;;7.17;5.70;;;;;;;2.80;54.23;97682.78;6975620;28;20234;-81
2022/12/09 01:05:22;;;;;;;7.73;6.13;;;;;;;3.06;55.59;97762.13;6973571;28;20237;-80
2022/12/09 01:08:44;;;;;;;7.87;5.97;;;;;;;3.17;55.30;97745.72;6974774;28;20690;-81
2022/12/09 01:12:06;;;;;;;7.13;5.87;;;;;;;3.22;55.07;97765.47;6975327;28;20341;-80
2022/12/09 01:15:27;;;;;;;6.60;5.63;;;;;;;3.35;54.52;97778.94;6974506;28;20352;-80
2022/12/09 01:18:50;;;;;;;8.67;5.97;;;;;;;3.15;55.42;97763.72;6974642;28;20590;-80
2022/12/09 01:22:12;;;;;;;5.77;5.13;;;;;;;3.07;54.32;97711.38;6989974;28;20278;-81
2022/12/09 01:25:34;;;;;;;7.60;5.53;;;;;;;3.49;53.94;97770.09;7030129;28;20244;-80
2022/12/09 01:28:56;;;;;;;6.30;5.40;;;;;;;2.84;55.44;97739.91;7031617;28;20224;-81
2022/12/09 01:32:17;;;;;;;13.03;7.33;;;;;;;2.45;56.72;97726.03;7031235;28;20230;-81
2022/12/09 01:35:41;;;;;;;9.60;7.00;;;;;;;2.56;57.05;97736.25;7030473;28;20201;-81
2022/12/09 01:39:03;;;;;;;8.57;6.30;;;;;;;3.04;56.07;97727.72;7030422;28;20731;-81
2022/12/09 01:42:26;;;;;;;6.37;5.73;;;;;;;3.41;54.26;97754.22;7030627;28;20282;-81
2022/12/09 01:45:48;;;;;;;6.30;5.60;;;;;;;3.21;54.23;97745.19;7030219;28;20271;-80
2022/12/09 01:49:12;;;;;;;6.17;5.50;;;;;;;2.89;53.72;97742.88;7031770;28;20306;-81
2022/12/09 01:52:38;;;;;;;10.53;6.40;;;;;;;2.62;54.74;97713.41;7035346;28;20258;-82
2022/12/09 02:00:28;;;;;;;7.73;6.60;;;;;;;3.00;54.86;97733.59;7024274;28;20723;-81
2022/12/09 02:04:21;;;;;;;8.80;6.93;;;;;;;2.99;55.68;97746.09;6967168;28;20229;-81
2022/12/09 02:07:47;;;;;;;7.73;6.67;;;;;;;2.31;55.92;97732.13;6966368;28;20229;-81
2022/12/09 02:11:23;;;;;;;10.47;7.30;;;;;;;2.76;56.36;97726.72;6983272;28;20232;-81
2022/12/09 02:14:50;;;;;;;13.73;6.73;;;;;;;2.77;56.36;97716.91;6981217;28;20299;-80
2022/12/09 02:18:16;;;;;;;10.33;7.33;;;;;;;3.10;56.06;97704.84;6985429;28;20280;-81
2022/12/09 02:21:42;;;;;;;9.17;5.80;;;;;;;3.39;54.61;97703.00;6987636;28;20617;-81
2022/12/09 02:25:12;;;;;;;6.77;6.00;;;;;;;2.78;55.45;97714.03;7041593;28;20217;-81
2022/12/09 02:28:59;;;;;;;8.30;6.50;;;;;;;2.47;57.06;97705.41;7007351;28;20245;-81
2022/12/09 02:32:42;;;;;;;8.87;6.23;;;;;;;2.32;57.47;97709.88;6970892;28;20210;-81
2022/12/09 02:36:08;;;;;;;9.87;6.93;;;;;;;2.17;56.90;97660.31;6982831;28;20218;-81
2022/12/09 02:39:35;;;;;;;9.63;6.80;;;;;;;2.62;55.62;97698.28;7031557;28;20263;-81
2022/12/09 02:43:00;;;;;;;8.60;7.20;;;;;;;2.23;57.69;97713.59;7040113;28;20213;-81
2022/12/09 02:46:39;;;;;;;10.30;7.20;;;;;;;2.52;56.71;97691.53;7040780;28;20229;-81
2022/12/09 02:50:28;;;;;;;7.67;6.67;;;;;;;2.82;55.89;97702.03;7042042;28;20228;-81
2022/12/09 02:54:14;;;;;;;9.33;6.40;;;;;;;2.57;55.15;97634.13;6993794;28;20215;-80
2022/12/09 02:58:39;;;;;;;8.93;6.50;;;;;;;2.61;55.16;97695.78;7005380;28;20565;-79
2022/12/09 03:02:37;;;;;;;9.97;7.73;;;;;;;2.08;57.10;97694.13;7035200;28;20204;-81
2022/12/09 03:06:31;;;;;;;12.57;7.10;;;;;;;2.23;57.13;97660.44;7043824;28;20227;-81
2022/12/09 03:10:10;;;;;;;8.17;6.50;;;;;;;2.48;57.19;97658.34;7042959;28;21070;-81
2022/12/09 03:13:48;;;;;;;8.67;7.17;;;;;;;2.64;56.55;97664.31;7042053;28;20208;-81
2022/12/09 03:26:50;;;;;;;10.10;7.73;;;;;;;1.91;58.12;97652.75;6927919;28;20258;-81
2022/12/09 03:51:04;;;;;;;7.90;6.10;;;;;;;2.43;54.89;97647.44;7005751;28;20266;-83
2022/12/09 04:07:43;;;;;;;12.53;6.80;;;;;;;1.95;56.80;97647.91;6980971;28;20233;-81
2022/12/09 04:11:05;;;;;;;7.50;6.73;;;;;;;2.20;56.96;97631.53;7012337;28;20210;-81
2022/12/09 04:15:09;;;;;;;9.63;6.47;;;;;;;2.36;55.26;97643.88;7009999;28;20247;-81
2022/12/09 04:19:08;;;;;;;8.77;6.37;;;;;;;2.30;54.93;97645.41;7006154;28;20225;-81
2022/12/09 04:30:44;;;;;;;7.50;6.70;;;;;;;1.73;56.93;97630.97;6949021;28;20234;-83
2022/12/09 04:34:06;;;;;;;10.13;7.03;;;;;;;1.15;57.83;97616.63;6975963;28;20241;-83
2022/12/09 04:37:28;;;;;;;8.37;7.00;;;;;;;1.51;58.77;97601.78;6982840;28;20722;-81
2022/12/09 04:40:51;;;;;;;10.37;7.47;;;;;;;2.15;57.40;97604.69;6983514;28;20206;-81
2022/12/09 04:44:12;;;;;;;10.43;7.87;;;;;;;2.35;56.33;97591.66;6977311;28;20671;-83
2022/12/09 04:47:34;;;;;;;8.67;7.87;;;;;;;2.28;55.31;97570.31;6974831;28;20436;-83
2022/12/09 04:50:56;;;;;;;19.07;11.63;;;;;;;1.85;56.06;97546.34;6974836;28;20288;-83
2022/12/09 04:54:37;;;;;;;8.90;8.00;;;;;;;2.10;56.01;97584.97;6990473;28;20267;-81
2022/12/09 05:06:11;;;;;;;8.33;6.83;;;;;;;2.04;55.99;97559.94;6944770;28;20234;-81
2022/12/09 05:13:25;;;;;;;8.60;7.53;;;;;;;1.88;55.74;97532.69;6968288;28;20569;-83
2022/12/09 05:16:47;;;;;;;7.87;6.80;;;;;;;1.93;56.70;97562.22;6983013;28;20202;-84
2022/12/09 05:23:55;;;;;;;11.90;8.27;;;;;;;2.03;56.36;97547.66;6986986;28;20202;-84
2022/12/09 05:27:16;;;;;;;11.50;8.40;;;;;;;1.93;57.95;97549.75;6977561;28;20563;-83
2022/12/09 05:30:39;;;;;;;9.50;7.13;;;;;;;1.74;57.22;97496.31;6993770;28;20239;-83
2022/12/09 05:34:01;;;;;;;7.90;6.90;;;;;;;2.49;56.29;97557.06;6974438;28;20301;-80
2022/12/09 05:37:32;;;;;;;15.53;7.77;;;;;;;2.22;58.38;97503.75;6986764;28;20548;-82
2022/12/09 05:40:54;;;;;;;11.00;8.90;;;;;;;2.52;56.14;97543.44;7005112;28;20684;-80
2022/12/09 05:44:15;;;;;;;7.57;6.77;;;;;;;2.34;55.99;97534.16;7003341;28;20273;-76
2022/12/09 05:47:38;;;;;;;9.70;7.47;;;;;;;1.94;55.48;97526.66;6999834;28;20371;-77
2022/12/09 05:51:02;;;;;;;8.77;7.60;;;;;;;2.11;56.70;97518.34;6990493;28;20222;-80
2022/12/09 05:54:24;;;;;;;9.20;7.50;;;;;;;1.80;56.34;97496.44;7006527;28;20202;-81
2022/12/09 05:57:47;;;;;;;10.17;6.47;;;;;;;2.02;57.12;97514.09;7009048;28;20229;-81
2022/12/09 06:01:10;;;;;;;10.27;7.40;;;;;;;2.27;57.34;97507.50;7007059;28;20210;-82
2022/12/09 06:04:34;;;;;;;8.10;7.03;;;;;;;2.08;56.84;97512.56;7012404;28;20262;-79
2022/12/09 06:07:56;;;;;;;8.47;7.50;;;;;;;2.00;56.89;97510.81;6996046;28;20291;-80
2022/12/09 06:11:19;;;;;;;9.67;7.80;;;;;;;2.37;57.07;97510.69;6998013;28;20195;-79
2022/12/09 06:14:40;;;;;;;10.77;7.77;;;;;;;2.16;56.03;97489.38;7006327;28;20213;-79
2022/12/09 06:18:11;;;;;;;10.00;7.70;;;;;;;2.55;55.48;97491.69;7009249;28;20668;-80
2022/12/09 06:21:49;;;;;;;13.23;7.83;;;;;;;2.26;56.42;97513.81;6995643;28;20295;-80
2022/12/09 06:25:14;;;;;;;11.70;7.43;;;;;;;2.47;56.44;97513.91;6992386;28;20297;-80
2022/12/09 06:28:43;;;;;;;13.07;7.77;;;;;;;2.59;56.39;97503.63;7005509;28;20229;-80
2022/12/09 06:32:17;;;;;;;12.27;8.07;;;;;;;2.49;55.98;97511.06;7009144;28;20201;-80
2022/12/09 06:35:48;;;;;;;11.80;8.47;;;;;;;2.63;55.62;97494.22;6996397;28;20198;-80
2022/12/09 06:39:11;;;;;;;10.30;8.13;;;;;;;2.10;55.92;97511.38;6989554;28;20233;-80
2022/12/09 06:42:33;;;;;;;10.60;8.87;;;;;;;1.94;56.94;97490.28;6993917;28;20243;-81
2022/12/09 06:45:54;;;;;;;12.87;8.80;;;;;;;2.18;57.17;97497.97;6986435;28;20214;-81
2022/12/09 06:49:16;;;;;;;14.60;8.60;;;;;;;2.14;57.95;97502.00;7008595;28;20236;-81
2022/12/09 06:52:38;;;;;;;10.13;7.80;;;;;;;2.19;57.53;97515.56;7008242;28;20209;-81
2022/12/09 06:56:03;;;;;;;14.00;10.13;;;;;;;2.10;58.01;97491.94;7010694;28;20653;-80
2022/12/09 06:59:25;;;;;;;16.20;10.47;;;;;;;2.21;58.70;97515.41;7002038;28;20523;-80
2022/12/09 07:02:47;;;;;;;17.17;11.93;;;;;;;2.33;57.68;97512.09;7007565;28;20202;-80
2022/12/09 07:06:19;;;;;;;18.37;12.00;;;;;;;2.29;57.83;97494.84;7008005;28;20245;-80
2022/12/09 07:09:41;;;;;;;18.47;12.43;;;;;;;2.57;57.13;97495.81;6984947;28;20708;-80
2022/12/09 07:13:04;;;;;;;18.77;12.83;;;;;;;2.56;57.18;97475.56;6985599;28;20213;-80
2022/12/09 07:16:26;;;;;;;13.97;10.70;;;;;;;2.79;56.13;97489.50;7003630;28;20217;-80
2022/12/09 07:19:47;;;;;;;17.23;11.77;;;;;;;2.76;56.32;97500.53;6997403;28;20702;-80
2022/12/09 07:23:09;;;;;;;16.57;11.10;;;;;;;2.44;57.08;97465.56;7005642;28;20736;-80
2022/12/09 07:26:32;;;;;;;19.00;12.20;;;;;;;2.95;57.25;97499.91;6992926;28;20691;-81
2022/12/09 07:29:56;;;;;;;16.30;10.50;;;;;;;2.69;57.41;97502.28;7009122;28;20347;-79
2022/12/09 07:33:17;;;;;;;14.83;10.97;;;;;;;2.86;56.59;97506.38;7008117;28;20209;-80
2022/12/09 07:36:39;;;;;;;16.93;12.37;;;;;;;2.91;57.04;97498.66;6999927;28;20766;-80
2022/12/09 07:40:00;;;;;;;12.67;8.97;;;;;;;3.60;54.38;97505.03;7003273;28;20613;-81
2022/12/09 07:43:22;;;;;;;14.67;9.80;;;;;;;2.37;56.79;97497.41;7003284;28;20617;-80
2022/12/09 07:46:45;;;;;;;17.43;12.13;;;;;;;2.49;57.45;97484.47;7007720;28;20316;-80
2022/12/09 07:50:08;;;;;;;15.87;11.83;;;;;;;2.63;58.26;97486.25;6989319;28;20236;-80
2022/12/09 07:53:30;;;;;;;16.80;11.47;;;;;;;2.82;58.79;97483.81;6981877;28;20234;-80
2022/12/09 07:56:51;;;;;;;18.13;11.57;;;;;;;3.02;57.60;97476.84;6976908;28;20202;-80
2022/12/09 08:00:14;;;;;;;16.13;11.33;;;;;;;2.99;58.32;97487.88;7003398;28;20248;-80
2022/12/09 08:03:38;;;;;;;15.70;11.50;;;;;;;3.88;56.36;97482.66;6991659;28;20230;-79
2022/12/09 08:07:00;;;;;;;18.50;11.50;;;;;;;3.53;56.88;97493.47;6975022;28;20230;-80
2022/12/09 08:10:22;;;;;;;22.47;13.73;;;;;;;3.71;56.41;97485.84;6974662;28;21415;-80
2022/12/09 08:13:44;;;;;;;18.73;13.07;;;;;;;3.65;56.19;97487.41;6975026;28;20687;-80
2022/12/09 08:17:05;;;;;;;20.57;12.83;;;;;;;3.29;57.68;97477.91;6973622;28;20226;-80
2022/12/09 08:20:29;;;;;;;16.10;11.10;;;;;;;3.14;58.04;97479.81;6973993;28;20222;-80
2022/12/09 08:23:51;;;;;;;14.63;10.93;;;;;;;3.55;58.19;97483.47;6973483;28;20290;-80
2022/12/09 08:27:12;;;;;;;14.90;11.37;;;;;;;3.68;57.51;97476.38;6972771;28;20257;-80
2022/12/09 08:30:36;;;;;;;16.67;12.40;;;;;;;3.24;58.53;97472.34;6974241;28;20332;-80
2022/12/09 08:33:57;;;;;;;17.10;11.70;;;;;;;3.36;58.26;97468.94;6976604;28;20234;-79
2022/12/09 08:37:20;;;;;;;18.70;12.63;;;;;;;3.72;57.90;97480.28;6977046;28;20233;-80
2022/12/09 08:40:42;;;;;;;20.93;12.87;;;;;;;4.13;56.95;97486.50;6982830;28;20884;-80
2022/12/09 08:44:05;;;;;;;21.93;12.43;;;;;;;4.15;56.82;97472.97;7002795;28;20718;-79
2022/12/09 08:47:27;;;;;;;21.20;12.87;;;;;;;4.25;56.34;97436.09;7018891;28;20229;-80
2022/12/09 08:50:48;;;;;;;18.60;13.33;;;;;;;4.18;56.93;97428.06;7045464;28;20266;-80
2022/12/09 08:54:11;;;;;;;20.37;12.87;;;;;;;4.16;56.04;97422.13;7048084;28;20201;-80
2022/12/09 08:57:33;;;;;;;20.03;14.13;;;;;;;4.47;56.36;97443.78;7027390;28;20232;-79
2022/12/09 09:00:54;;;;;;;21.80;15.50;;;;;;;4.83;55.55;97444.28;6987304;28;20206;-78
2022/12/09 09:04:18;;;;;;;26.33;16.33;;;;;;;4.84;55.49;97447.78;6985473;28;20226;-79
2022/12/09 09:07:40;;;;;;;19.27;13.50;;;;;;;4.75;55.53;97438.31;6995525;28;20257;-79
2022/12/09 09:11:09;;;;;;;21.63;13.17;;;;;;;4.87;55.63;97437.53;6984348;28;20206;-79
2022/12/09 09:14:30;;;;;;;22.53;13.90;;;;;;;4.99;55.75;97443.06;7002796;28;20262;-77
2022/12/09 09:17:52;;;;;;;22.33;13.40;;;;;;;4.85;55.42;97439.56;7017514;28;20302;-79
2022/12/09 09:21:15;;;;;;;17.53;13.07;;;;;;;4.74;56.25;97442.00;6999911;28;20434;-80
2022/12/09 09:24:36;;;;;;;18.60;12.90;;;;;;;4.83;56.37;97448.81;6987401;28;20782;-78
2022/12/09 09:27:59;;;;;;;22.23;13.13;;;;;;;4.89;55.99;97440.00;6975195;28;20226;-78
2022/12/09 09:31:22;;;;;;;19.10;14.27;;;;;;;5.05;56.04;97461.78;6997359;28;20721;-78
2022/12/09 09:34:44;;;;;;;19.27;13.07;;;;;;;5.27;55.42;97441.06;7000476;28;20619;-79
2022/12/09 09:38:05;;;;;;;20.00;13.43;;;;;;;4.65;55.46;97397.88;6998495;28;20262;-78
2022/12/09 09:41:38;;;;;;;22.80;13.93;;;;;;;5.11;56.01;97426.25;7000315;28;20238;-78
2022/12/09 09:45:03;;;;;;;20.23;14.60;;;;;;;5.21;55.79;97424.03;6999635;28;20336;-77
2022/12/09 09:48:28;;;;;;;25.90;14.90;;;;;;;5.36;55.72;97424.63;7000518;28;20702;-76
2022/12/09 09:51:49;;;;;;;26.70;15.07;;;;;;;5.38;55.42;97424.41;7000312;28;20205;-77
2022/12/09 09:55:14;;;;;;;24.10;14.37;;;;;;;4.94;55.80;97411.66;6999983;28;20718;-76
2022/12/09 09:58:39;;;;;;;21.47;14.60;;;;;;;5.17;55.71;97417.44;6995689;28;20222;-76
2022/12/09 10:02:13;;;;;;;21.43;13.40;;;;;;;5.64;54.99;97416.38;6972168;28;20214;-77
2022/12/09 10:05:36;;;;;;;23.67;15.50;;;;;;;5.47;54.76;97397.28;6972038;28;20282;-77
2022/12/09 10:09:01;;;;;;;23.33;15.07;;;;;;;5.65;54.74;97405.47;6972841;28;20292;-77
2022/12/09 10:12:27;;;;;;;26.00;15.33;;;;;;;5.74;54.36;97404.22;6972494;28;20191;-77
2022/12/09 10:15:56;;;;;;;33.33;21.77;;;;;;;5.95;53.93;97404.00;6971719;28;20198;-78
2022/12/09 10:19:22;;;;;;;28.40;20.17;;;;;;;5.78;54.42;97405.44;6972064;28;20322;-78
2022/12/09 10:22:47;;;;;;;27.20;16.57;;;;;;;5.86;54.02;97394.56;6972754;28;20665;-78
2022/12/09 10:26:15;;;;;;;22.70;15.87;;;;;;;5.51;54.71;97390.50;6970717;28;20516;-78
2022/12/09 10:29:46;;;;;;;27.40;16.50;;;;;;;5.54;55.10;97383.91;6971828;28;20238;-77
2022/12/09 10:33:10;;;;;;;24.10;16.67;;;;;;;6.02;54.10;97375.38;6973617;28;20396;-79
2022/12/09 10:36:33;;;;;;;26.20;17.07;;;;;;;6.21;54.04;97393.22;6997816;28;20676;-81
2022/12/09 10:40:00;;;;;;;21.97;16.70;;;;;;;6.28;53.53;97394.00;6977905;28;20908;-78
2022/12/09 10:43:41;;;;;;;21.77;17.20;;;;;;;6.05;54.03;97376.81;6986426;28;20560;-79
2022/12/09 10:47:05;;;;;;;23.87;16.13;;;;;;;6.03;53.69;97374.38;7032390;28;20209;-78
2022/12/09 10:50:31;;;;;;;24.63;17.30;;;;;;;5.98;53.97;97381.34;7031968;28;20235;-79
2022/12/09 10:53:56;;;;;;;25.07;15.57;;;;;;;6.05;54.04;97369.59;7031618;28;20742;-80
2022/12/09 10:57:23;;;;;;;22.20;15.83;;;;;;;5.91;53.89;97357.31;7028387;28;20704;-79
2022/12/09 11:00:59;;;;;;;23.90;17.17;;;;;;;6.19;54.09;97357.81;7030230;28;20342;-79
2022/12/09 11:04:24;;;;;;;20.17;15.87;;;;;;;5.93;54.24;97363.28;7030767;28;20222;-79
2022/12/09 11:07:47;;;;;;;24.47;15.60;;;;;;;6.07;54.25;97364.84;7030273;28;20704;-79
2022/12/09 11:11:10;;;;;;;35.13;22.77;;;;;;;6.31;53.72;97356.09;7030683;28;20211;-79
2022/12/09 11:14:34;;;;;;;28.27;19.13;;;;;;;6.58;53.23;97348.75;7030023;28;20247;-79
2022/12/09 11:17:58;;;;;;;28.33;19.87;;;;;;;6.62;52.72;97339.25;7030179;28;20354;-79
2022/12/09 11:21:29;;;;;;;37.13;27.03;;;;;;;6.55;53.53;97346.53;7030123;28;20300;-79
2022/12/09 11:24:53;;;;;;;23.73;16.07;;;;;;;6.80;52.82;97350.06;7030678;28;20205;-79
2022/12/09 11:28:25;;;;;;;23.23;16.53;;;;;;;6.54;53.03;97320.78;7026131;28;20727;-80
2022/12/09 11:31:46;;;;;;;23.93;17.53;;;;;;;6.85;53.24;97340.31;7004694;28;20554;-78
2022/12/09 11:35:16;;;;;;;25.37;18.00;;;;;;;6.90;52.87;97337.81;7003685;28;20247;-79
2022/12/09 11:38:40;;;;;;;30.13;19.23;;;;;;;7.06;52.49;97321.22;7002026;28;20253;-79
2022/12/09 11:42:16;;;;;;;26.70;19.90;;;;;;;7.27;52.53;97318.16;7007726;28;20208;-85
2022/12/09 11:45:40;;;;;;;34.10;18.23;;;;;;;7.18;52.35;97321.34;7006225;28;20196;-80
2022/12/09 11:49:05;;;;;;;24.43;16.03;;;;;;;7.17;52.17;97325.84;7001753;28;20244;-79
2022/12/09 11:52:31;;;;;;;23.77;16.30;;;;;;;6.95;52.37;97305.84;6992222;28;20248;-80
2022/12/09 11:55:55;;;;;;;28.47;17.47;;;;;;;7.30;52.96;97309.66;6983363;28;20226;-80
2022/12/09 11:59:20;;;;;;;25.97;18.00;;;;;;;7.43;52.12;97290.75;6994921;28;20231;-80
2022/12/09 12:02:46;;;;;;;25.60;19.50;;;;;;;7.12;52.77;97303.41;6978961;28;20230;-80
2022/12/09 12:06:13;;;;;;;26.93;20.33;;;;;;;7.56;52.80;97317.44;6987501;28;20209;-80
2022/12/09 12:09:39;;;;;;;26.33;17.60;;;;;;;7.59;51.73;97300.91;6977316;28;20255;-79
2022/12/09 12:13:05;;;;;;;23.03;17.53;;;;;;;7.60;51.29;97310.56;6977866;28;20629;-79
2022/12/09 12:16:31;;;;;;;25.90;17.93;;;;;;;7.55;51.90;97305.06;6975663;28;20707;-79
2022/12/09 12:19:56;;;;;;;25.47;17.67;;;;;;;7.40;51.56;97287.69;6975427;28;20262;-79
2022/12/09 12:23:26;;;;;;;24.73;15.97;;;;;;;6.38;52.98;97238.31;6976559;28;20350;-79
2022/12/09 12:26:57;;;;;;;23.93;16.40;;;;;;;7.06;52.98;97289.06;6977258;28;20222;-79
2022/12/09 12:30:31;;;;;;;23.23;16.93;;;;;;;7.08;52.24;97217.28;6977662;28;20284;-81
2022/12/09 12:34:01;;;;;;;27.40;19.20;;;;;;;7.12;52.36;97274.78;6977933;28;20281;-80
2022/12/09 12:37:39;;;;;;;23.73;17.60;;;;;;;6.94;52.95;97269.38;6976513;28;20253;-80
2022/12/09 12:41:08;;;;;;;23.90;17.30;;;;;;;7.26;52.82;97288.88;6977125;28;20558;-80
2022/12/09 12:48:20;;;;;;;25.97;18.23;;;;;;;7.50;52.52;97272.75;7031374;28;20229;-81
2022/12/09 12:51:50;;;;;;;28.33;18.07;;;;;;;7.44;52.75;97284.38;6976773;28;20213;-82
2022/12/09 12:55:25;;;;;;;25.53;17.27;;;;;;;7.30;52.59;97298.94;6974082;28;20200;-81
2022/12/09 12:58:57;;;;;;;25.97;17.13;;;;;;;7.37;52.00;97269.38;6974829;28;20313;-80
2022/12/09 13:02:30;;;;;;;26.93;19.60;;;;;;;6.97;53.43;97298.41;6977301;28;20200;-79
2022/12/09 13:05:53;;;;;;;33.27;25.80;;;;;;;7.13;53.49;97292.47;6975346;28;20280;-79
2022/12/09 13:09:20;;;;;;;23.57;16.43;;;;;;;7.18;52.92;97308.72;6977158;28;20281;-81
2022/12/09 13:12:55;;;;;;;23.33;16.93;;;;;;;6.94;53.24;97261.34;6978308;28;20195;-82
2022/12/09 13:16:19;;;;;;;25.30;17.57;;;;;;;7.31;53.12;97318.53;7024782;28;20198;-82
2022/12/09 13:19:43;;;;;;;23.73;17.60;;;;;;;7.21;52.78;97308.31;7011735;28;20232;-79
2022/12/09 13:27:18;;;;;;;29.97;21.10;;;;;;;7.31;53.47;97321.19;6972531;28;20650;-79
2022/12/09 13:30:45;;;;;;;23.47;17.17;;;;;;;7.45;52.74;97309.31;7009353;28;20206;-78
2022/12/09 13:34:17;;;;;;;27.73;18.33;;;;;;;7.35;52.41;97279.50;6994800;28;20213;-78
2022/12/09 13:37:56;;;;;;;24.30;17.30;;;;;;;7.40;52.66;97307.28;6992948;28;20280;-78
2022/12/09 13:45:25;;;;;;;25.37;17.50;;;;;;;7.13;52.48;97307.75;7003083;28;20207;-78
2022/12/09 13:48:49;;;;;;;29.97;17.20;;;;;;;7.12;52.62;97309.59;7003986;28;20319;-79
2022/12/09 13:52:11;;;;;;;24.10;16.83;;;;;;;6.80;53.80;97328.63;7002561;28;20202;-78
2022/12/09 13:55:40;;;;;;;26.47;17.10;;;;;;;6.69;54.12;97316.75;7000232;28;20689;-78
2022/12/09 13:59:38;;;;;;;24.70;17.37;;;;;;;6.93;53.84;97320.50;6998876;28;20227;-80
2022/12/09 14:03:02;;;;;;;27.43;17.83;;;;;;;6.54;54.44;97302.03;7000861;28;20209;-78
2022/12/09 14:06:29;;;;;;;26.57;17.80;;;;;;;7.16;54.00;97292.06;7000302;28;20246;-79
2022/12/09 14:09:53;;;;;;;25.73;18.70;;;;;;;7.46;53.29;97308.25;7001563;28;20239;-78
2022/12/09 14:13:34;;;;;;;24.37;18.03;;;;;;;6.92;54.32;97325.03;7006129;28;20206;-78
2022/12/09 14:16:56;;;;;;;28.67;17.67;;;;;;;7.24;54.44;97320.44;6991696;28;20191;-80
2022/12/09 14:20:20;;;;;;;31.47;18.53;;;;;;;7.14;55.20;97322.78;6991010;28;20231;-79
2022/12/09 14:24:30;;;;;;;33.07;22.30;;;;;;;7.05;56.28;97332.97;6978726;28;20219;-79
2022/12/09 14:28:25;;;;;;;31.60;22.17;;;;;;;6.85;57.44;97348.34;6976483;28;20247;-81
2022/12/09 14:31:58;;;;;;;33.93;22.07;;;;;;;7.10;57.29;97327.78;7004513;28;20284;-79
2022/12/09 14:35:24;;;;;;;33.80;21.37;;;;;;;7.30;56.93;97335.66;7003798;28;20194;-79
2022/12/09 14:38:48;;;;;;;31.70;20.73;;;;;;;7.19;56.87;97337.16;7005569;28;20600;-79
2022/12/09 14:42:22;;;;;;;33.20;20.90;;;;;;;6.82;58.18;97337.25;7005505;28;20274;-78
2022/12/09 14:45:49;;;;;;;34.20;21.57;;;;;;;6.79;58.50;97335.03;7004722;28;20296;-78
2022/12/09 14:49:13;;;;;;;35.47;22.77;;;;;;;6.54;59.18;97308.19;7004783;28;20746;-79
2022/12/09 14:52:35;;;;;;;32.47;23.13;;;;;;;6.78;58.77;97320.00;7004626;28;20266;-79
2022/12/09 14:55:57;;;;;;;34.57;23.37;;;;;;;6.67;59.32;97326.84;6994589;28;20546;-78
2022/12/09 14:59:22;;;;;;;36.53;25.07;;;;;;;7.23;58.55;97351.78;6976318;28;20252;-78
2022/12/09 15:02:50;;;;;;;35.40;24.40;;;;;;;7.49;57.39;97358.78;6976877;28;20215;-78
2022/12/09 15:06:17;;;;;;;35.30;23.73;;;;;;;7.50;57.27;97347.81;6976524;28;20224;-78
2022/12/09 15:09:48;;;;;;;29.60;22.07;;;;;;;7.37;57.12;97361.34;6979005;28;20258;-79
2022/12/09 15:13:10;;;;;;;35.07;24.00;;;;;;;6.78;58.49;97333.41;6981010;28;20231;-78
2022/12/09 15:16:32;;;;;;;38.53;25.50;;;;;;;7.10;58.20;97341.19;6975390;28;20203;-79
2022/12/09 15:19:54;;;;;;;42.83;25.40;;;;;;;6.88;59.06;97353.28;6988440;28;20232;-79
2022/12/09 15:23:19;;;;;;;40.30;25.13;;;;;;;6.70;59.86;97355.88;7003577;28;20236;-79
2022/12/09 15:26:41;;;;;;;42.70;27.17;;;;;;;6.73;60.26;97371.50;7004715;28;20310;-79
2022/12/09 15:30:16;;;;;;;50.30;31.57;;;;;;;6.79;60.03;97370.66;7001562;28;20235;-81
2022/12/09 15:33:42;;;;;;;44.87;29.33;;;;;;;6.66;60.12;97354.66;7006135;28;20682;-78
2022/12/09 15:37:05;;;;;;;44.23;27.53;;;;;;;6.96;60.05;97365.59;7005863;28;20285;-79
2022/12/09 15:40:28;;;;;;;44.83;26.53;;;;;;;7.03;59.85;97382.44;7005398;28;20252;-80
2022/12/09 15:43:50;;;;;;;47.67;30.03;;;;;;;6.92;59.77;97378.63;7002945;28;20586;-80
2022/12/09 15:47:16;;;;;;;49.70;30.63;;;;;;;6.94;60.29;97381.06;6976812;28;20289;-80
2022/12/09 15:50:42;;;;;;;48.70;29.57;;;;;;;6.91;60.60;97390.38;6976340;28;20636;-80
2022/12/09 15:54:07;;;;;;;48.90;28.67;;;;;;;7.04;59.98;97392.13;6976006;28;20239;-80
2022/12/09 15:57:28;;;;;;;57.40;34.47;;;;;;;6.91;60.55;97402.94;6994039;28;20248;-79
2022/12/09 16:00:51;;;;;;;66.07;40.73;;;;;;;6.77;61.04;97407.56;7003170;28;20246;-79
2022/12/09 16:04:16;;;;;;;56.23;34.90;;;;;;;6.88;60.86;97398.00;7004243;28;20674;-79
2022/12/09 16:07:51;;;;;;;52.27;32.93;;;;;;;6.84;61.10;97389.56;7005058;28;20242;-79
2022/12/09 16:11:13;;;;;;;52.70;29.60;;;;;;;6.69;61.75;97401.63;7001650;28;20199;-79
2022/12/09 16:14:48;;;;;;;49.53;29.53;;;;;;;6.67;61.88;97401.81;7004025;28;20235;-78
2022/12/09 16:18:14;;;;;;;48.77;29.40;;;;;;;6.80;61.52;97398.25;6981622;28;20324;-80
2022/12/09 16:21:36;;;;;;;54.00;30.63;;;;;;;6.60;62.13;97411.75;6979269;28;20410;-77
2022/12/09 16:25:14;;;;;;;75.50;39.57;;;;;;;6.99;61.39;97379.38;6975928;28;20275;-80
2022/12/09 16:28:36;;;;;;;55.60;31.70;;;;;;;7.33;60.07;97405.72;6983283;28;20232;-82
2022/12/09 16:32:20;;;;;;;71.57;38.57;;;;;;;7.16;59.50;97409.97;6979191;28;20207;-82
2022/12/09 16:35:44;;;;;;;68.33;36.13;;;;;;;6.98;60.05;97391.16;6977687;28;20655;-80
2022/12/09 16:39:42;;;;;;;68.07;32.83;;;;;;;6.90;60.27;97404.78;6996328;28;20256;-78
2022/12/09 16:43:24;;;;;;;110.80;46.07;;;;;;;6.54;61.80;97407.25;7005152;28;20190;-79
2022/12/09 16:46:48;;;;;;;82.37;38.40;;;;;;;6.35;62.16;97383.25;7004300;28;20329;-80
2022/12/09 16:50:10;;;;;;;53.00;29.77;;;;;;;6.30;61.76;97378.56;7005117;28;20574;-79
2022/12/09 16:53:34;;;;;;;48.77;28.77;;;;;;;6.73;61.25;97397.50;7006579;28;20202;-79
2022/12/09 16:56:59;;;;;;;47.07;30.17;;;;;;;6.92;60.67;97407.25;7006175;28;20210;-79
2022/12/09 17:00:31;;;;;;;53.83;31.10;;;;;;;7.11;60.47;97411.66;7007063;28;20230;-79
2022/12/09 17:03:56;;;;;;;66.30;37.60;;;;;;;7.29;59.79;97417.06;7008770;28;20296;-79
2022/12/09 17:07:17;;;;;;;44.87;27.13;;;;;;;7.41;59.51;97400.06;7008536;28;20224;-81
2022/12/09 17:10:45;;;;;;;42.03;27.23;;;;;;;7.24;59.56;97396.28;6991559;28;20227;-79
2022/12/09 17:14:07;;;;;;;48.80;28.83;;;;;;;6.84;60.40;97367.34;6980975;28;20333;-79
2022/12/09 17:17:57;;;;;;;44.30;27.23;;;;;;;7.38;59.77;97427.31;6979679;28;20302;-79
2022/12/09 17:25:09;;;;;;;51.87;29.33;;;;;;;6.64;60.91;97399.59;6975086;28;20198;-79
2022/12/09 17:28:32;;;;;;;55.00;30.20;;;;;;;6.68;61.60;97426.75;6980790;28;20236;-80
2022/12/09 17:31:53;;;;;;;55.27;32.80;;;;;;;7.32;60.26;97430.06;6980255;28;20241;-79
2022/12/09 17:35:17;;;;;;;55.40;34.67;;;;;;;7.51;59.50;97424.53;6980397;28;20256;-79